Yoshino — JI3690 — position and weather

sailwx.info

Track history (hours):
 
Tides and Currents Weather Stations Pressure Air Temp Water Temp Dewpoint Dewpoint Depression Visibility Wind Speed Wind Dir Waves Ship Positions

Yoshino

Last reported at 2018-Jan-21 20:00 UTC. Time now 2018-Jan-21 20:24 UTC.
Position N 34°33' E 135°25'.

Length 38 m; draft 4 m.

Type: Tug. MMSI: 431301568.

Date/timePositionNaut miles runAvg speedWind from/ knotsBaromVisibWave heightAir tempDewpointWater temp
2018-Jan-21 20:00N 34°33' E 135°25'1 0.1
2018-Jan-21 05:00N 34°33' E 135°27'2 3.8
2018-Jan-21 04:30N 34°34' E 135°24'4 7.2
2018-Jan-21 04:00N 34°37' E 135°23'3 6.1
2018-Jan-21 03:31N 34°38' E 135°27'0 0.3
2018-Jan-21 03:00N 34°38' E 135°26'1 2.5
2018-Jan-21 02:30N 34°39' E 135°26'0 0.0
2018-Jan-21 02:00N 34°39' E 135°26'0 0.0
2018-Jan-21 01:30N 34°39' E 135°26'0 0.0
2018-Jan-21 01:00N 34°39' E 135°26'0 0.0
2018-Jan-21 00:30N 34°39' E 135°26'0 0.0
2018-Jan-21 00:00N 34°39' E 135°26'0 0.1
2018-Jan-20 23:31N 34°39' E 135°26'1 2.3
2018-Jan-20 23:00N 34°39' E 135°25'3 5.1
2018-Jan-20 22:30N 34°37' E 135°23'4 9.0
2018-Jan-20 22:00N 34°33' E 135°27'0 0.0
2018-Jan-20 07:01N 34°33' E 135°27'0 0.0
2018-Jan-20 07:00N 34°33' E 135°27'1 1.2
2018-Jan-20 06:30N 34°33' E 135°26'1 2.5
2018-Jan-20 06:00N 34°33' E 135°24'2 3.5
2018-Jan-20 05:30N 34°33' E 135°27'0 0.0
2018-Jan-20 05:00N 34°33' E 135°27'0 0.0
2018-Jan-20 04:30N 34°33' E 135°27'0 0.0
2018-Jan-20 04:00N 34°33' E 135°27'0 0.0
2018-Jan-20 03:30N 34°33' E 135°27'0 0.0
2018-Jan-20 03:00N 34°33' E 135°27'0 0.0
2018-Jan-20 02:30N 34°33' E 135°27'0 0.0
2018-Jan-20 02:00N 34°33' E 135°27'0 0.0
2018-Jan-20 01:30N 34°33' E 135°27'0 0.0
2018-Jan-20 01:00N 34°33' E 135°27'0 0.0
2018-Jan-20 00:30N 34°33' E 135°27'2 3.9
2018-Jan-20 00:00N 34°33' E 135°24'0 0.0
2018-Jan-19 23:30N 34°33' E 135°24'0 0.1
2018-Jan-19 23:00N 34°33' E 135°24'0 0.9
2018-Jan-19 22:30N 34°33' E 135°24'3 5.4
2018-Jan-19 22:00N 34°33' E 135°20'2 4.3
2018-Jan-19 21:30N 34°34' E 135°23'3 0.1
2018-Jan-18 02:00N 34°33' E 135°27'4 8.1
2018-Jan-18 01:30N 34°36' E 135°23'3 6.1
2018-Jan-18 01:00N 34°39' E 135°24'2 1.5
2018-Jan-18 00:00N 34°38' E 135°23'0 1.4
2018-Jan-17 23:58N 34°38' E 135°23'  
Track history (hours):
 
Tides and Currents Weather Stations Pressure Air Temp Water Temp Dewpoint Dewpoint Depression Visibility Wind Speed Wind Dir Waves Ship Positions

Yoshino

Last reported at 2018-Jan-21 20:00 UTC. Time now 2018-Jan-21 20:24 UTC.
Position N 34°33' E 135°25'.

Length 38 m; draft 4 m.

Type: Tug. MMSI: 431301568.

Date/timePositionNaut miles runAvg speedWind from/ knotsBaromVisibWave heightAir tempDewpointWater temp
2018-Jan-21 20:00N 34°33' E 135°25'1 0.1
2018-Jan-21 05:00N 34°33' E 135°27'2 3.8
2018-Jan-21 04:30N 34°34' E 135°24'4 7.2
2018-Jan-21 04:00N 34°37' E 135°23'3 6.1
2018-Jan-21 03:31N 34°38' E 135°27'0 0.3
2018-Jan-21 03:00N 34°38' E 135°26'1 2.5
2018-Jan-21 02:30N 34°39' E 135°26'0 0.0
2018-Jan-21 02:00N 34°39' E 135°26'0 0.0
2018-Jan-21 01:30N 34°39' E 135°26'0 0.0
2018-Jan-21 01:00N 34°39' E 135°26'0 0.0
2018-Jan-21 00:30N 34°39' E 135°26'0 0.0
2018-Jan-21 00:00N 34°39' E 135°26'0 0.1
2018-Jan-20 23:31N 34°39' E 135°26'1 2.3
2018-Jan-20 23:00N 34°39' E 135°25'3 5.1
2018-Jan-20 22:30N 34°37' E 135°23'4 9.0
2018-Jan-20 22:00N 34°33' E 135°27'0 0.0
2018-Jan-20 07:01N 34°33' E 135°27'0 0.0
2018-Jan-20 07:00N 34°33' E 135°27'1 1.2
2018-Jan-20 06:30N 34°33' E 135°26'1 2.5
2018-Jan-20 06:00N 34°33' E 135°24'2 3.5
2018-Jan-20 05:30N 34°33' E 135°27'0 0.0
2018-Jan-20 05:00N 34°33' E 135°27'0 0.0
2018-Jan-20 04:30N 34°33' E 135°27'0 0.0
2018-Jan-20 04:00N 34°33' E 135°27'0 0.0
2018-Jan-20 03:30N 34°33' E 135°27'0 0.0
2018-Jan-20 03:00N 34°33' E 135°27'0 0.0
2018-Jan-20 02:30N 34°33' E 135°27'0 0.0
2018-Jan-20 02:00N 34°33' E 135°27'0 0.0
2018-Jan-20 01:30N 34°33' E 135°27'0 0.0
2018-Jan-20 01:00N 34°33' E 135°27'0 0.0
2018-Jan-20 00:30N 34°33' E 135°27'2 3.9
2018-Jan-20 00:00N 34°33' E 135°24'0 0.0
2018-Jan-19 23:30N 34°33' E 135°24'0 0.1
2018-Jan-19 23:00N 34°33' E 135°24'0 0.9
2018-Jan-19 22:30N 34°33' E 135°24'3 5.4
2018-Jan-19 22:00N 34°33' E 135°20'2 4.3
2018-Jan-19 21:30N 34°34' E 135°23'3 0.1
2018-Jan-18 02:00N 34°33' E 135°27'4 8.1
2018-Jan-18 01:30N 34°36' E 135°23'3 6.1
2018-Jan-18 01:00N 34°39' E 135°24'2 1.5
2018-Jan-18 00:00N 34°38' E 135°23'0 1.4
2018-Jan-17 23:58N 34°38' E 135°23'  

Dump ship's entire track history